Time;durP1;ratioP1;P1;durP2;ratioP2;P2;SDS_P1;SDS_P2;PMS_P1;PMS_P2;Temp;Humidity;BMP_temperature;BMP_pressure;BME280_temperature;BME280_humidity;BME280_pressure;Samples;Min_cycle;Max_cycle;Signal;HPM_P1;HPM_P2
2023/10/25 05:05:11;;;;;;;9.60;5.88;;;;;;;7.31;100.00;99016.09;10002469;29;20059;-78
2023/10/25 05:10:14;;;;;;;7.00;5.63;;;;;;;7.22;99.80;99007.09;10017955;29;20074;-78
2023/10/25 05:15:19;;;;;;;7.85;5.72;;;;;;;7.05;99.95;99010.41;10022404;29;20157;-79
2023/10/25 05:20:24;;;;;;;7.90;5.32;;;;;;;6.90;99.29;99017.09;10017110;29;20046;-79
2023/10/25 05:25:28;;;;;;;7.22;5.35;;;;;;;6.69;99.28;99015.28;10028965;29;20046;-78
2023/10/25 05:30:32;;;;;;;8.50;5.53;;;;;;;6.53;99.74;99005.09;10014922;29;20046;-79
2023/10/25 05:35:37;;;;;;;12.23;6.75;;;;;;;6.45;100.00;99012.06;10015062;29;20049;-77
2023/10/25 05:40:40;;;;;;;12.27;6.72;;;;;;;6.50;100.00;99010.69;10007268;29;20046;-78
2023/10/25 05:45:43;;;;;;;8.18;7.10;;;;;;;6.53;100.00;99012.25;10009513;29;20953;-80
2023/10/25 05:50:51;;;;;;;10.35;6.65;;;;;;;6.47;100.00;99020.75;10026055;29;20062;-80
2023/10/25 05:55:54;;;;;;;14.07;7.13;;;;;;;6.26;99.97;99016.28;10025209;29;20038;-80
2023/10/25 06:00:57;;;;;;;12.23;8.52;;;;;;;6.24;99.71;99020.06;10031559;29;20050;-80
2023/10/25 06:06:03;;;;;;;11.45;8.32;;;;;;;6.20;100.00;99018.63;10025871;29;20046;-80
2023/10/25 06:11:06;;;;;;;17.30;9.65;;;;;;;6.25;100.00;99019.91;10011943;29;20058;-80
2023/10/25 06:16:09;;;;;;;16.13;11.30;;;;;;;6.24;100.00;99022.72;10016692;29;20049;-80
2023/10/25 06:21:14;;;;;;;20.77;13.23;;;;;;;6.22;99.99;99019.34;10010503;29;21241;-79
2023/10/25 06:26:17;;;;;;;25.33;13.55;;;;;;;6.24;100.00;99025.41;10015479;29;20509;-79
2023/10/25 06:31:19;;;;;;;37.03;18.10;;;;;;;7.12;100.00;99029.41;10002436;29;20046;-79
2023/10/25 06:36:25;;;;;;;25.77;14.13;;;;;;;7.80;97.12;99029.56;10019328;29;20532;-79
2023/10/25 06:41:28;;;;;;;12.25;8.52;;;;;;;8.32;91.72;99024.75;10011874;29;20068;-79
2023/10/25 06:46:31;;;;;;;18.08;9.23;;;;;;;8.69;88.37;99022.16;10014001;29;20061;-79
2023/10/25 06:51:36;;;;;;;14.52;9.77;;;;;;;8.52;85.72;99026.41;10016913;29;21305;-79
2023/10/25 06:56:41;;;;;;;18.55;11.55;;;;;;;8.17;85.94;99024.31;10008813;29;20049;-78
2023/10/25 07:01:46;;;;;;;17.90;12.75;;;;;;;7.91;87.81;99022.22;10008295;29;20087;-77
2023/10/25 07:06:51;;;;;;;21.88;13.65;;;;;;;8.13;87.97;99031.78;10010273;29;20058;-77
2023/10/25 07:11:54;;;;;;;17.17;12.63;;;;;;;8.42;86.63;99027.38;10007353;29;20107;-77
2023/10/25 07:16:57;;;;;;;17.17;12.85;;;;;;;8.28;86.20;99024.19;10010349;29;20050;-77
2023/10/25 07:22:02;;;;;;;19.35;12.68;;;;;;;8.12;87.82;99019.41;10009901;29;20169;-77
2023/10/25 07:27:06;;;;;;;17.20;11.32;;;;;;;8.53;86.11;99019.22;10010337;29;20049;-78
2023/10/25 07:32:08;;;;;;;18.25;11.30;;;;;;;8.79;83.82;99011.41;9999223;29;21100;-78
2023/10/25 07:37:13;;;;;;;14.52;10.60;;;;;;;8.98;83.38;99011.34;10000137;29;20049;-78
2023/10/25 07:42:16;;;;;;;13.05;9.85;;;;;;;9.30;82.94;98999.34;10000409;29;20120;-77
2023/10/25 07:47:20;;;;;;;13.50;9.57;;;;;;;9.47;80.50;98998.53;10011466;29;20502;-78
2023/10/25 07:52:25;;;;;;;13.93;10.13;;;;;;;9.53;81.12;98996.25;10008872;29;20056;-78
2023/10/25 07:57:28;;;;;;;15.82;9.85;;;;;;;9.82;81.74;98975.44;10018883;29;20529;-77
2023/10/25 08:02:34;;;;;;;11.57;9.15;;;;;;;9.79;79.65;98974.88;10046202;29;20038;-77
2023/10/25 08:07:38;;;;;;;12.93;9.48;;;;;;;9.41;82.38;98969.66;10039011;29;20087;-77
2023/10/25 08:12:41;;;;;;;13.82;10.27;;;;;;;9.99;81.63;98973.75;10038463;29;20049;-77
2023/10/25 08:17:44;;;;;;;12.82;9.02;;;;;;;9.99;80.50;98959.50;10034336;29;20599;-77
2023/10/25 08:22:49;;;;;;;13.18;8.90;;;;;;;10.65;79.02;98944.69;10036393;29;20098;-77
2023/10/25 08:27:51;;;;;;;13.23;8.00;;;;;;;10.31;79.48;98932.91;10038529;29;20481;-77
2023/10/25 08:32:54;;;;;;;11.32;7.32;;;;;;;10.82;77.85;98935.69;10037783;29;20045;-77
2023/10/25 08:37:59;;;;;;;12.75;7.50;;;;;;;11.18;75.84;98930.97;10038762;29;20490;-78
2023/10/25 08:43:02;;;;;;;7.25;6.13;;;;;;;10.63;76.89;98927.88;10037926;29;20092;-77
2023/10/25 08:48:05;;;;;;;9.45;7.38;;;;;;;10.22;79.83;98925.78;10032332;29;20490;-76
2023/10/25 08:53:13;;;;;;;10.20;7.07;;;;;;;10.10;81.62;98914.50;10036375;29;20058;-78
2023/10/25 08:58:18;;;;;;;9.38;7.13;;;;;;;11.18;78.46;98904.09;10039093;29;20049;-76
2023/10/25 09:03:41;;;;;;;8.95;5.97;;;;;;;11.39;75.13;98898.28;10041963;29;20459;-77
2023/10/25 09:08:57;;;;;;;7.43;5.60;;;;;;;11.86;74.33;98900.31;10042199;29;20484;-77
2023/10/25 09:14:00;;;;;;;8.07;4.20;;;;;;;11.61;74.70;98893.28;10036152;29;20045;-78
2023/10/25 09:19:04;;;;;;;8.98;4.72;;;;;;;11.22;77.12;98886.66;10004148;29;20053;-77
2023/10/25 09:24:09;;;;;;;9.77;4.88;;;;;;;10.87;79.17;98884.19;10007612;29;20121;-78
2023/10/25 09:29:14;;;;;;;6.20;4.70;;;;;;;11.45;78.93;98886.03;10012873;29;20068;-77
2023/10/25 09:34:17;;;;;;;7.38;4.43;;;;;;;11.72;77.90;98874.09;10005413;29;20053;-77
2023/10/25 09:39:22;;;;;;;6.47;4.10;;;;;;;11.69;77.07;98866.38;9995223;29;20053;-77
2023/10/25 09:44:28;;;;;;;8.95;4.13;;;;;;;12.00;77.21;98860.28;9999623;29;20053;-77
2023/10/25 09:49:34;;;;;;;6.80;3.42;;;;;;;11.85;76.90;98861.00;10000118;29;20045;-78
2023/10/25 09:54:47;;;;;;;5.72;3.58;;;;;;;11.41;78.60;98858.63;10008506;29;20049;-77
2023/10/25 09:59:53;;;;;;;4.88;4.18;;;;;;;11.45;79.10;98859.13;10017753;29;20050;-78
2023/10/25 10:05:00;;;;;;;9.45;4.53;;;;;;;11.33;79.06;98852.41;9999976;29;20061;-77
2023/10/25 10:10:15;;;;;;;7.85;4.47;;;;;;;11.29;79.34;98851.88;10006060;29;20046;-78
2023/10/25 10:15:19;;;;;;;9.13;5.50;;;;;;;11.02;79.96;98828.81;9993330;29;21249;-78
2023/10/25 10:20:25;;;;;;;9.30;6.00;;;;;;;11.13;80.77;98815.06;9996523;29;20066;-78
2023/10/25 10:30:57;;;;;;;9.15;5.80;;;;;;;11.29;79.37;98814.25;10327646;28;21504;-77
2023/10/25 10:36:01;;;;;;;5.30;4.80;;;;;;;11.60;78.46;98811.75;10332056;28;20048;-77
2023/10/25 10:41:04;;;;;;;9.15;5.80;;;;;;;11.41;78.42;98806.69;10338819;28;20054;-77
2023/10/25 10:46:09;;;;;;;8.18;5.05;;;;;;;11.35;78.88;98789.38;10348309;28;20072;-77
2023/10/25 10:51:13;;;;;;;10.77;5.35;;;;;;;11.22;79.39;98770.25;10355412;28;20049;-77
2023/10/25 10:56:16;;;;;;;7.50;5.07;;;;;;;11.24;78.82;98760.16;10347314;28;20061;-77
2023/10/25 11:01:20;;;;;;;8.48;5.78;;;;;;;11.44;78.39;98764.22;10345510;28;20192;-77
2023/10/25 11:06:24;;;;;;;6.45;4.72;;;;;;;11.31;78.93;98747.75;10351232;28;20057;-77
2023/10/25 11:11:27;;;;;;;11.27;4.95;;;;;;;11.49;79.30;98712.59;10351497;28;20046;-78
2023/10/25 11:16:31;;;;;;;10.00;5.18;;;;;;;11.40;78.80;98706.41;10354949;28;20080;-78
2023/10/25 11:21:34;;;;;;;12.20;6.60;;;;;;;11.26;79.45;98691.78;10356279;28;20523;-77
2023/10/25 11:26:40;;;;;;;8.70;5.55;;;;;;;11.34;79.02;98695.50;10352247;28;20091;-76
2023/10/25 11:31:48;;;;;;;9.32;5.35;;;;;;;11.26;78.81;98693.66;10355050;28;20053;-76
2023/10/25 11:36:51;;;;;;;10.93;6.00;;;;;;;11.31;78.15;98672.47;10338455;28;20048;-78
2023/10/25 11:41:55;;;;;;;11.35;6.30;;;;;;;11.50;78.88;98665.91;10309349;28;20045;-77
2023/10/25 11:47:02;;;;;;;9.55;5.93;;;;;;;11.19;79.25;98663.94;10308804;28;20141;-76
2023/10/25 11:52:07;;;;;;;7.03;5.40;;;;;;;11.27;79.36;98649.63;10336292;28;20053;-77
2023/10/25 11:57:09;;;;;;;9.77;5.43;;;;;;;11.22;79.48;98643.94;10323788;28;20061;-77
2023/10/25 12:02:14;;;;;;;8.52;5.72;;;;;;;11.44;78.98;98650.47;10321592;28;20410;-77
2023/10/25 12:07:17;;;;;;;12.70;5.70;;;;;;;11.42;78.45;98652.47;10322287;28;20584;-77
2023/10/25 12:12:21;;;;;;;10.05;5.63;;;;;;;11.30;78.89;98643.06;10318554;28;20054;-78
2023/10/25 12:17:25;;;;;;;11.15;5.32;;;;;;;11.49;78.31;98638.16;10309647;28;20046;-78
2023/10/25 12:22:28;;;;;;;7.93;4.80;;;;;;;11.33;79.13;98627.47;10323902;28;20148;-78
2023/10/25 12:27:31;;;;;;;8.40;5.35;;;;;;;11.29;79.73;98631.50;10323158;28;20061;-78
2023/10/25 12:32:35;;;;;;;11.23;5.53;;;;;;;11.20;80.21;98611.88;10322243;28;20082;-78
2023/10/25 12:37:39;;;;;;;6.80;5.45;;;;;;;11.06;80.54;98596.41;10317450;28;20058;-78
2023/10/25 12:42:41;;;;;;;9.02;5.50;;;;;;;11.11;80.56;98580.63;10311198;28;20168;-78
2023/10/25 12:47:46;;;;;;;9.35;5.57;;;;;;;11.12;79.81;98566.19;10320153;28;20042;-79
2023/10/25 12:52:49;;;;;;;8.90;5.47;;;;;;;11.12;80.68;98563.50;10320888;28;20512;-78
2023/10/25 12:57:52;;;;;;;9.45;5.90;;;;;;;11.36;80.07;98553.72;10326740;28;20046;-78
2023/10/25 13:02:56;;;;;;;8.82;5.35;;;;;;;11.09;80.07;98550.41;10322161;28;20413;-77
2023/10/25 13:07:59;;;;;;;13.55;5.60;;;;;;;11.23;80.10;98546.19;10309156;28;20050;-77
2023/10/25 13:13:02;;;;;;;7.20;4.82;;;;;;;11.14;80.02;98529.25;10311039;28;20073;-77
2023/10/25 13:18:07;;;;;;;6.82;4.88;;;;;;;11.30;79.85;98514.06;10310072;28;20053;-77
2023/10/25 13:23:10;;;;;;;6.93;4.50;;;;;;;11.02;80.40;98509.09;10311982;28;20694;-77
2023/10/25 13:28:13;;;;;;;10.35;4.43;;;;;;;11.13;80.73;98510.59;10315955;28;21248;-77
2023/10/25 13:33:17;;;;;;;9.48;5.97;;;;;;;11.28;80.36;98498.13;10307668;28;20046;-78
2023/10/25 13:38:20;;;;;;;9.60;3.72;;;;;;;11.33;80.04;98486.88;10307584;28;20188;-76
2023/10/25 13:43:23;;;;;;;3.88;3.40;;;;;;;11.24;80.50;98486.91;10312992;28;20058;-77
2023/10/25 13:48:27;;;;;;;5.57;3.70;;;;;;;11.02;80.89;98491.13;10309823;28;20061;-77
2023/10/25 13:53:30;;;;;;;8.48;4.18;;;;;;;11.25;81.00;98474.28;10313570;28;20057;-78
2023/10/25 13:58:34;;;;;;;5.75;3.47;;;;;;;11.10;81.68;98467.94;10306299;28;20125;-78
2023/10/25 14:03:39;;;;;;;7.38;3.95;;;;;;;11.32;80.75;98469.88;10311520;28;20114;-78
2023/10/25 14:08:44;;;;;;;10.27;3.65;;;;;;;11.42;80.33;98456.22;10310836;28;20050;-78
2023/10/25 14:13:50;;;;;;;9.15;3.42;;;;;;;11.45;80.11;98450.50;10310720;28;20548;-78
2023/10/25 14:18:54;;;;;;;8.25;3.67;;;;;;;11.35;80.36;98441.81;10314544;28;20548;-78
2023/10/25 14:23:57;;;;;;;5.32;3.78;;;;;;;11.38;80.71;98436.06;10306673;28;20050;-77
2023/10/25 14:29:00;;;;;;;5.93;3.13;;;;;;;11.30;80.73;98433.44;10311073;28;20046;-77
2023/10/25 14:34:05;;;;;;;4.75;3.00;;;;;;;11.07;81.53;98428.81;10302505;28;20527;-77
2023/10/25 14:39:12;;;;;;;3.20;2.90;;;;;;;11.14;80.80;98429.84;10307115;28;20046;-77
2023/10/25 14:44:15;;;;;;;5.88;2.47;;;;;;;11.10;81.64;98419.56;10308665;28;20069;-77
2023/10/25 14:49:19;;;;;;;7.82;2.88;;;;;;;10.79;83.37;98415.84;10313089;28;20508;-78
2023/10/25 14:54:23;;;;;;;8.75;4.25;;;;;;;10.37;89.37;98413.47;10319254;28;20056;-78
2023/10/25 14:59:30;;;;;;;7.28;2.67;;;;;;;9.45;100.00;98402.88;10314298;28;20054;-77
2023/10/25 15:04:34;;;;;;;8.25;4.07;;;;;;;9.08;100.00;98391.75;10319975;28;20882;-78
2023/10/25 15:09:37;;;;;;;11.63;3.90;;;;;;;8.99;100.00;98391.72;10313060;28;20049;-79
2023/10/25 15:14:40;;;;;;;8.65;4.53;;;;;;;9.00;100.00;98389.91;10324096;28;20095;-79
2023/10/25 15:19:57;;;;;;;9.27;4.97;;;;;;;9.08;100.00;98371.19;10331927;28;20054;-79
2023/10/25 15:24:59;;;;;;;10.98;5.35;;;;;;;9.03;100.00;98357.44;10330385;28;20509;-79
2023/10/25 15:30:03;;;;;;;7.45;4.88;;;;;;;9.29;100.00;98347.44;10327760;28;20124;-78
2023/10/25 15:35:08;;;;;;;8.80;5.28;;;;;;;9.31;100.00;98331.19;10325165;28;20058;-78
2023/10/25 15:40:11;;;;;;;10.25;5.55;;;;;;;9.33;100.00;98323.84;10325377;28;20667;-78
2023/10/25 15:45:23;;;;;;;10.70;5.32;;;;;;;9.28;100.00;98318.97;10327131;28;20046;-79
2023/10/25 15:50:28;;;;;;;6.28;4.68;;;;;;;9.19;100.00;98298.56;10320336;28;20046;-79
2023/10/25 15:55:31;;;;;;;7.97;5.80;;;;;;;9.27;100.00;98295.03;10322123;28;20061;-78
2023/10/25 16:00:34;;;;;;;7.53;4.72;;;;;;;9.31;100.00;98295.53;10333910;28;20053;-78
2023/10/25 16:05:41;;;;;;;7.72;4.00;;;;;;;9.24;100.00;98290.84;10323972;28;20725;-78
2023/10/25 16:10:44;;;;;;;5.30;4.07;;;;;;;9.12;100.00;98280.63;10333583;28;20898;-78
2023/10/25 16:15:46;;;;;;;8.57;4.30;;;;;;;9.16;100.00;98274.78;10324464;28;20081;-77
2023/10/25 16:20:51;;;;;;;5.82;4.57;;;;;;;9.13;100.00;98264.38;10327856;28;20432;-78
2023/10/25 16:25:55;;;;;;;10.25;4.15;;;;;;;9.15;100.00;98254.34;10348968;28;20050;-79
2023/10/25 16:31:01;;;;;;;5.72;3.85;;;;;;;9.16;100.00;98250.69;10332568;28;20045;-79
2023/10/25 16:36:08;;;;;;;6.35;4.60;;;;;;;9.18;100.00;98231.75;10321945;28;20057;-79
2023/10/25 16:41:12;;;;;;;8.07;4.72;;;;;;;9.15;100.00;98242.78;10331467;28;20046;-80
2023/10/25 16:46:17;;;;;;;7.05;5.43;;;;;;;9.25;100.00;98230.91;10326343;28;20049;-80
2023/10/25 16:51:22;;;;;;;7.47;5.20;;;;;;;9.29;100.00;98228.72;10333024;28;20085;-79
2023/10/25 16:56:26;;;;;;;4.95;4.03;;;;;;;9.25;100.00;98224.72;10333699;28;20054;-81
2023/10/25 17:01:28;;;;;;;7.10;4.00;;;;;;;9.30;100.00;98208.97;10327747;28;20610;-77
2023/10/25 17:06:33;;;;;;;6.38;4.05;;;;;;;9.30;100.00;98208.97;10316650;28;20527;-79
2023/10/25 17:11:36;;;;;;;9.68;4.65;;;;;;;9.20;100.00;98206.47;10306046;28;20104;-78
2023/10/25 17:16:39;;;;;;;8.27;5.47;;;;;;;9.38;100.00;98202.75;10325180;28;20053;-78
2023/10/25 17:21:43;;;;;;;7.90;5.78;;;;;;;9.10;100.00;98186.22;10326663;28;20651;-78
2023/10/25 17:26:46;;;;;;;10.07;5.88;;;;;;;9.26;100.00;98189.72;10323853;28;20062;-78
2023/10/25 17:31:49;;;;;;;14.23;7.13;;;;;;;9.22;100.00;98201.78;10331391;28;20110;-78
2023/10/25 17:36:54;;;;;;;11.13;6.40;;;;;;;9.36;100.00;98194.06;10318963;28;20049;-78
2023/10/25 17:41:57;;;;;;;10.90;6.78;;;;;;;9.33;100.00;98197.91;10328141;28;20046;-79
2023/10/25 17:47:00;;;;;;;9.90;7.68;;;;;;;9.15;100.00;98198.09;10331378;28;21128;-79
2023/10/25 17:52:05;;;;;;;11.20;7.55;;;;;;;9.01;100.00;98182.72;10326579;28;20394;-79
2023/10/25 17:57:08;;;;;;;12.75;8.77;;;;;;;9.19;100.00;98177.19;10326671;28;20057;-78
2023/10/25 18:02:13;;;;;;;11.45;8.25;;;;;;;9.23;100.00;98151.72;10322576;28;20456;-79
2023/10/25 18:07:17;;;;;;;11.05;7.80;;;;;;;9.17;100.00;98144.38;10326408;28;20103;-79
2023/10/25 18:12:20;;;;;;;10.48;7.68;;;;;;;9.23;100.00;98141.00;10319948;28;20042;-79
2023/10/25 18:17:23;;;;;;;14.27;8.77;;;;;;;9.25;100.00;98136.31;10313960;28;20074;-78
2023/10/25 18:22:28;;;;;;;9.95;8.43;;;;;;;9.31;100.00;98132.97;10323350;28;20058;-79
2023/10/25 18:27:31;;;;;;;11.82;7.93;;;;;;;9.24;100.00;98140.84;10312109;28;20740;-79
2023/10/25 18:32:35;;;;;;;12.23;9.02;;;;;;;9.34;100.00;98143.31;10321808;28;20065;-79
2023/10/25 18:37:40;;;;;;;10.50;8.35;;;;;;;9.55;100.00;98125.88;10317508;28;20416;-79
2023/10/25 18:42:44;;;;;;;11.75;7.70;;;;;;;9.38;100.00;98138.44;10351014;28;20113;-78
2023/10/25 18:47:49;;;;;;;9.40;8.00;;;;;;;9.56;100.00;98116.81;10320871;28;20105;-79
2023/10/25 18:52:54;;;;;;;9.85;8.02;;;;;;;9.52;100.00;98127.03;10333147;28;20053;-78
2023/10/25 18:57:56;;;;;;;11.07;8.55;;;;;;;9.52;100.00;98113.66;10346500;28;20676;-78
2023/10/25 19:02:59;;;;;;;8.88;6.60;;;;;;;9.51;100.00;98111.97;10340563;28;20065;-79
2023/10/25 19:08:04;;;;;;;9.73;6.30;;;;;;;9.43;100.00;98101.25;10339850;28;20722;-78
2023/10/25 19:13:28;;;;;;;8.82;6.57;;;;;;;9.52;100.00;98108.28;10336115;28;20042;-77
2023/10/25 19:18:32;;;;;;;9.93;6.90;;;;;;;9.64;100.00;98103.38;10335776;28;20054;-77
2023/10/25 19:23:39;;;;;;;9.00;6.68;;;;;;;9.47;100.00;98098.06;10317894;28;20133;-79
2023/10/25 19:28:42;;;;;;;7.68;6.10;;;;;;;9.53;100.00;98099.22;10328704;28;20104;-78
2023/10/25 19:33:45;;;;;;;8.73;7.03;;;;;;;9.68;100.00;98099.31;10327844;28;20053;-78
2023/10/25 19:38:49;;;;;;;7.20;6.50;;;;;;;9.68;100.00;98100.19;10322665;28;20096;-76
2023/10/25 19:43:52;;;;;;;7.18;6.57;;;;;;;9.71;100.00;98091.78;10323603;28;22244;-78
2023/10/25 19:48:55;;;;;;;8.95;6.65;;;;;;;9.57;100.00;98076.44;10312576;28;20090;-77
2023/10/25 19:53:59;;;;;;;6.90;5.85;;;;;;;9.62;100.00;98078.59;10327342;28;21049;-79
2023/10/25 19:59:03;;;;;;;7.35;5.57;;;;;;;9.66;100.00;98082.59;10327744;28;20168;-77
2023/10/25 20:04:08;;;;;;;7.10;5.60;;;;;;;9.73;100.00;98086.25;10318674;28;20975;-77
2023/10/25 20:09:14;;;;;;;4.93;4.45;;;;;;;9.74;100.00;98079.88;10330707;28;20078;-77
2023/10/25 20:14:19;;;;;;;9.13;5.00;;;;;;;9.73;100.00;98073.66;10325667;28;20050;-78
2023/10/25 20:19:22;;;;;;;6.30;5.10;;;;;;;9.71;100.00;98077.56;10323778;28;20045;-78
2023/10/25 20:24:26;;;;;;;5.30;4.55;;;;;;;9.81;100.00;98083.50;10319568;28;20591;-78
2023/10/25 20:29:29;;;;;;;6.57;5.43;;;;;;;9.75;100.00;98078.88;10313194;28;20061;-78
2023/10/25 20:34:32;;;;;;;6.00;5.43;;;;;;;9.72;100.00;98072.00;10321580;28;20045;-77
2023/10/25 20:39:36;;;;;;;5.43;4.85;;;;;;;9.85;100.00;98070.63;10330247;28;20065;-77
2023/10/25 20:44:39;;;;;;;5.30;4.80;;;;;;;9.75;100.00;98073.50;10330208;28;20759;-77
2023/10/25 20:49:42;;;;;;;6.85;5.32;;;;;;;9.72;100.00;98068.50;10312696;28;20129;-77
2023/10/25 20:54:48;;;;;;;5.85;5.18;;;;;;;9.76;100.00;98064.44;10325920;28;20123;-79
2023/10/25 20:59:53;;;;;;;5.53;4.95;;;;;;;9.75;100.00;98068.13;10329113;28;20060;-77
2023/10/25 21:04:56;;;;;;;7.63;5.68;;;;;;;9.81;100.00;98067.44;10319422;28;21545;-78
2023/10/25 21:10:02;;;;;;;7.55;6.25;;;;;;;9.84;100.00;98068.94;10302564;28;20425;-77
2023/10/25 21:15:06;;;;;;;7.13;5.25;;;;;;;9.85;100.00;98070.63;10317076;28;20061;-78
2023/10/25 21:20:10;;;;;;;6.18;5.57;;;;;;;9.88;100.00;98068.44;10314742;28;20054;-78
2023/10/25 21:25:15;;;;;;;6.50;5.80;;;;;;;9.90;100.00;98063.75;10298872;28;20050;-77
2023/10/25 21:30:18;;;;;;;6.32;5.72;;;;;;;9.91;100.00;98062.72;10321757;28;20049;-78
2023/10/25 21:35:21;;;;;;;7.15;5.90;;;;;;;9.90;100.00;98063.75;10315308;28;20093;-76
2023/10/25 21:40:25;;;;;;;7.03;5.57;;;;;;;9.95;100.00;98068.56;10309031;28;20613;-77
2023/10/25 21:45:28;;;;;;;7.72;6.50;;;;;;;10.00;100.00;98073.41;10320978;28;20054;-78
2023/10/25 21:50:31;;;;;;;6.68;5.95;;;;;;;10.02;100.00;98069.53;10314203;28;20046;-77
2023/10/25 21:55:40;;;;;;;9.60;6.32;;;;;;;10.03;100.00;98070.38;10308266;28;20745;-78
2023/10/25 22:00:43;;;;;;;6.80;6.10;;;;;;;10.09;100.00;98067.81;10311191;28;20046;-76
2023/10/25 22:05:47;;;;;;;7.88;6.15;;;;;;;10.08;100.00;98062.63;10308352;28;20045;-77
2023/10/25 22:10:51;;;;;;;8.48;6.43;;;;;;;10.09;100.00;98065.13;10323709;28;20053;-77
2023/10/25 22:15:54;;;;;;;7.93;6.40;;;;;;;10.02;100.00;98060.66;10322229;28;20058;-77
2023/10/25 22:20:58;;;;;;;7.60;6.78;;;;;;;10.02;100.00;98057.97;10331432;28;20053;-78
2023/10/25 22:26:02;;;;;;;10.77;7.18;;;;;;;10.09;100.00;98056.22;10314436;28;20069;-79
2023/10/25 22:31:06;;;;;;;11.25;6.97;;;;;;;10.10;100.00;98055.25;10304648;28;20057;-77
2023/10/25 22:36:10;;;;;;;8.50;6.85;;;;;;;10.15;100.00;98059.06;10312539;28;20602;-77
2023/10/25 22:41:16;;;;;;;9.07;6.93;;;;;;;10.14;100.00;98059.22;10310977;28;20053;-77
2023/10/25 22:46:29;;;;;;;7.65;6.85;;;;;;;10.15;100.00;98053.69;10312910;28;20042;-77
2023/10/25 22:51:32;;;;;;;7.00;6.30;;;;;;;10.20;100.00;98066.56;10315121;28;20054;-77
2023/10/25 22:56:36;;;;;;;8.20;6.97;;;;;;;10.25;100.00;98071.38;10321901;28;20589;-76
2023/10/25 23:01:40;;;;;;;8.38;6.90;;;;;;;10.26;100.00;98062.34;10307949;28;20060;-78
2023/10/25 23:06:43;;;;;;;8.98;7.40;;;;;;;10.27;100.00;98069.38;10317232;28;20058;-78
2023/10/25 23:11:47;;;;;;;9.75;8.07;;;;;;;10.06;100.00;98065.47;10324538;28;20048;-77
2023/10/25 23:16:50;;;;;;;12.63;8.45;;;;;;;10.17;100.00;98069.59;10327382;28;20184;-77
2023/10/25 23:21:53;;;;;;;9.43;8.32;;;;;;;10.18;100.00;98076.66;10324931;28;20053;-77
2023/10/25 23:26:59;;;;;;;21.02;14.82;;;;;;;10.15;100.00;98071.66;10318207;28;21187;-77
2023/10/25 23:32:02;;;;;;;18.58;12.13;;;;;;;10.13;100.00;98073.66;10285388;28;20523;-77
2023/10/25 23:37:05;;;;;;;13.93;10.88;;;;;;;10.03;100.00;98078.41;10323321;28;20038;-78
2023/10/25 23:42:09;;;;;;;15.10;11.02;;;;;;;10.11;100.00;98083.72;10300928;28;20594;-77
2023/10/25 23:47:12;;;;;;;16.90;11.73;;;;;;;10.11;100.00;98075.69;10291866;28;20094;-77
2023/10/25 23:52:14;;;;;;;16.92;11.13;;;;;;;9.97;100.00;98084.47;10309146;28;20081;-77
2023/10/25 23:57:19;;;;;;;18.80;11.88;;;;;;;10.09;100.00;98085.75;10324904;28;20064;-77
